createdAt,value
2022-10-01T00:01:08.259Z,8.98
2022-10-01T00:03:36.421Z,10.40
2022-10-01T00:06:11.467Z,8.32
2022-10-01T00:08:40.765Z,11.75
2022-10-01T00:11:12.381Z,8.82
2022-10-01T00:13:39.348Z,9.07
2022-10-01T00:16:20.263Z,10.32
2022-10-01T00:18:48.104Z,11.23
2022-10-01T00:21:17.833Z,12.38
2022-10-01T00:23:44.244Z,11.40
2022-10-01T00:26:21.490Z,11.85
2022-10-01T00:28:53.177Z,10.10
2022-10-01T00:31:19.651Z,11.70
2022-10-01T00:33:47.141Z,13.33
2022-10-01T00:38:40.435Z,11.20
2022-10-01T00:41:08.179Z,9.30
2022-10-01T00:43:44.034Z,11.23
2022-10-01T00:46:21.079Z,11.77
2022-10-01T00:49:01.635Z,10.37
2022-10-01T00:51:38.472Z,13.63
2022-10-01T00:54:12.297Z,11.70
2022-10-01T00:56:39.316Z,12.57
2022-10-01T00:59:07.124Z,13.90
2022-10-01T01:01:37.238Z,16.55
2022-10-01T01:04:05.942Z,12.02
2022-10-01T01:06:32.380Z,12.35
2022-10-01T01:09:02.118Z,13.35
2022-10-01T01:11:43.994Z,11.93
2022-10-01T01:14:27.062Z,12.77
2022-10-01T01:17:08.589Z,13.27
2022-10-01T01:20:22.600Z,16.48
2022-10-01T01:23:06.080Z,16.02
2022-10-01T01:25:45.854Z,12.38
2022-10-01T01:28:24.459Z,12.80
2022-10-01T01:31:01.446Z,16.42
2022-10-01T01:33:30.998Z,15.10
2022-10-01T01:36:06.089Z,14.35
2022-10-01T01:38:51.957Z,14.13
2022-10-01T01:41:20.991Z,14.38
2022-10-01T01:43:51.427Z,13.57
2022-10-01T01:46:20.063Z,13.65
2022-10-01T01:48:50.894Z,13.20
2022-10-01T01:51:24.924Z,13.27
2022-10-01T01:53:51.775Z,15.13
2022-10-01T01:56:18.335Z,15.23
2022-10-01T01:58:45.799Z,17.77
2022-10-01T02:04:09.813Z,18.15
2022-10-01T02:06:57.442Z,14.35
2022-10-01T02:09:40.677Z,13.98
2022-10-01T02:12:16.091Z,18.20
2022-10-01T02:14:57.248Z,17.75
2022-10-01T02:17:30.242Z,14.32
2022-10-01T02:20:11.406Z,20.52
2022-10-01T02:22:50.194Z,14.77
2022-10-01T02:25:22.848Z,16.48
2022-10-01T02:27:56.096Z,16.98
2022-10-01T02:30:22.601Z,15.68
2022-10-01T02:32:51.107Z,17.10
2022-10-01T02:35:19.470Z,17.17
2022-10-01T02:37:50.168Z,15.20
2022-10-01T02:40:22.309Z,13.10
2022-10-01T02:42:52.629Z,14.55
2022-10-01T02:45:24.479Z,13.23
2022-10-01T02:47:57.205Z,14.68
2022-10-01T02:50:31.020Z,16.48
2022-10-01T02:53:14.692Z,14.77
2022-10-01T02:55:42.165Z,11.05
2022-10-01T03:00:37.859Z,12.68
2022-10-01T03:03:06.408Z,16.38
2022-10-01T03:05:32.795Z,15.23
2022-10-01T03:07:59.399Z,13.43
2022-10-01T03:10:25.809Z,11.37
2022-10-01T03:12:52.182Z,11.23
2022-10-01T03:15:19.759Z,11.85
2022-10-01T03:17:50.706Z,10.35
2022-10-01T03:20:17.208Z,13.23
2022-10-01T03:22:47.310Z,10.90
2022-10-01T03:25:15.538Z,10.93
2022-10-01T03:27:42.304Z,11.55
2022-10-01T03:30:09.762Z,11.27
2022-10-01T03:35:02.464Z,12.00
2022-10-01T03:37:28.903Z,11.40
2022-10-01T03:39:55.245Z,11.13
2022-10-01T03:42:21.613Z,10.40
2022-10-01T03:44:48.503Z,10.95
2022-10-01T03:47:14.894Z,10.35
2022-10-01T03:49:41.404Z,9.52
2022-10-01T03:52:07.882Z,8.98
2022-10-01T03:54:37.087Z,9.27
2022-10-01T03:57:05.912Z,10.02
2022-10-01T03:59:32.304Z,8.40
2022-10-01T04:01:59.680Z,8.40
2022-10-01T04:06:52.564Z,9.55
2022-10-01T04:09:19.179Z,7.40
2022-10-01T04:11:46.002Z,7.70
2022-10-01T04:14:12.944Z,6.95
2022-10-01T04:16:40.885Z,7.05
2022-10-01T04:19:08.601Z,8.15
2022-10-01T04:21:40.157Z,7.60
2022-10-01T04:24:07.059Z,7.05
2022-10-01T04:26:35.705Z,7.13
2022-10-01T04:29:02.364Z,6.68
2022-10-01T04:31:37.989Z,7.53
2022-10-01T04:34:10.673Z,6.70
2022-10-01T04:36:37.404Z,6.90
2022-10-01T04:39:04.654Z,6.95
2022-10-01T04:41:32.120Z,6.25
2022-10-01T04:44:00.097Z,6.60
2022-10-01T04:46:29.554Z,6.70
2022-10-01T04:48:56.755Z,6.93
2022-10-01T04:51:23.491Z,5.90
2022-10-01T04:53:50.749Z,7.93
2022-10-01T04:56:17.522Z,6.32
2022-10-01T04:58:44.311Z,6.03
2022-10-01T05:01:11.341Z,5.60
2022-10-01T05:03:38.415Z,8.27
2022-10-01T05:06:09.754Z,5.15
2022-10-01T05:08:37.731Z,5.85
2022-10-01T05:11:07.096Z,6.40
2022-10-01T05:13:34.238Z,5.05
2022-10-01T05:16:02.466Z,6.90
2022-10-01T05:18:29.912Z,6.10
2022-10-01T05:20:57.672Z,5.85
2022-10-01T05:23:24.527Z,6.70
2022-10-01T05:25:50.976Z,6.00
2022-10-01T05:28:22.483Z,8.02
2022-10-01T05:30:51.259Z,5.30
2022-10-01T05:33:18.098Z,5.10
2022-10-01T05:35:44.571Z,6.20
2022-10-01T05:38:12.210Z,5.80
2022-10-01T05:40:38.590Z,5.03
2022-10-01T05:43:05.280Z,5.03
2022-10-01T05:45:34.860Z,6.22
2022-10-01T05:48:04.939Z,7.00
2022-10-01T05:50:37.908Z,5.47
2022-10-01T05:53:10.292Z,5.50
2022-10-01T05:55:40.742Z,5.47
2022-10-01T05:58:10.673Z,5.78
2022-10-01T06:00:39.099Z,5.40
2022-10-01T06:03:09.815Z,5.18
2022-10-01T06:05:37.104Z,5.45
2022-10-01T06:08:09.835Z,7.72
2022-10-01T06:10:37.158Z,6.57
2022-10-01T06:13:07.840Z,6.75
2022-10-01T06:15:38.027Z,5.93
2022-10-01T06:18:09.683Z,5.80
2022-10-01T06:20:41.265Z,5.30
2022-10-01T06:23:13.941Z,5.78
2022-10-01T06:25:43.686Z,7.22
2022-10-01T06:28:14.636Z,5.47
2022-10-01T06:30:42.268Z,5.85
2022-10-01T06:35:44.796Z,5.53
2022-10-01T06:38:12.022Z,7.05
2022-10-01T06:40:39.309Z,6.93
2022-10-01T06:43:09.362Z,5.43
2022-10-01T06:45:40.543Z,6.43
2022-10-01T06:48:13.895Z,5.70
2022-10-01T06:50:43.235Z,22.63
2022-10-01T06:53:09.897Z,5.00
2022-10-01T06:55:38.665Z,5.25
2022-10-01T06:58:21.315Z,5.47
2022-10-01T07:00:49.730Z,9.32
2022-10-01T07:03:22.445Z,6.85
2022-10-01T07:05:50.153Z,5.75
2022-10-01T07:08:18.386Z,8.23
2022-10-01T07:10:46.172Z,6.35
2022-10-01T07:13:17.743Z,8.05
2022-10-01T07:15:45.415Z,6.28
2022-10-01T07:18:13.293Z,7.90
2022-10-01T07:20:42.019Z,6.30
2022-10-01T07:23:13.058Z,7.82
2022-10-01T07:25:40.987Z,10.85
2022-10-01T07:28:16.459Z,7.43
2022-10-01T07:30:56.625Z,5.35
2022-10-01T07:33:23.901Z,8.23
2022-10-01T07:35:50.588Z,5.80
2022-10-01T07:38:17.333Z,8.20
2022-10-01T07:40:44.280Z,6.78
2022-10-01T07:43:10.693Z,6.43
2022-10-01T07:45:38.312Z,8.43
2022-10-01T07:48:08.522Z,7.75
2022-10-01T07:50:35.402Z,9.00
2022-10-01T07:53:05.979Z,13.25
2022-10-01T07:55:34.281Z,8.63
2022-10-01T07:58:04.587Z,11.77
2022-10-01T08:00:34.310Z,11.45
2022-10-01T08:03:00.931Z,8.77
2022-10-01T08:05:34.850Z,12.32
2022-10-01T08:08:07.270Z,12.32
2022-10-01T08:10:36.684Z,9.50
2022-10-01T08:13:08.584Z,11.35
2022-10-01T08:15:36.173Z,15.00
2022-10-01T08:18:04.131Z,10.10
2022-10-01T08:20:32.086Z,13.88
2022-10-01T08:23:07.330Z,12.50
2022-10-01T08:25:37.878Z,10.55
2022-10-01T08:28:06.596Z,13.23
2022-10-01T08:30:35.539Z,11.32
2022-10-01T08:33:02.471Z,15.38
2022-10-01T08:35:29.313Z,14.82
2022-10-01T08:38:01.190Z,11.40
2022-10-01T08:40:27.882Z,17.77
2022-10-01T08:43:02.724Z,11.13
2022-10-01T08:45:39.277Z,12.63
2022-10-01T08:48:16.819Z,18.95
2022-10-01T08:50:54.446Z,14.80
2022-10-01T08:53:48.502Z,19.00
2022-10-01T08:56:22.812Z,15.23
2022-10-01T08:58:59.436Z,15.43
2022-10-01T09:01:30.661Z,17.95
2022-10-01T09:03:59.686Z,14.75
2022-10-01T09:06:28.510Z,12.52
2022-10-01T09:09:21.794Z,10.85
2022-10-01T09:12:00.280Z,16.60
2022-10-01T09:15:00.203Z,13.00
2022-10-01T09:17:52.104Z,13.38
2022-10-01T09:20:42.122Z,10.30
2022-10-01T09:23:09.179Z,14.05
2022-10-01T09:25:38.579Z,21.00
2022-10-01T09:28:23.555Z,11.13
2022-10-01T09:31:09.182Z,9.50
2022-10-01T09:33:41.389Z,13.80
2022-10-01T09:36:34.323Z,15.75
2022-10-01T09:39:26.613Z,13.23
2022-10-01T09:41:53.259Z,10.63
2022-10-01T09:44:32.677Z,16.80
2022-10-01T09:47:00.028Z,11.02
2022-10-01T09:52:13.774Z,12.32
2022-10-01T09:54:47.472Z,13.43
2022-10-01T09:57:21.701Z,11.82
2022-10-01T10:00:07.778Z,9.30
2022-10-01T10:02:47.605Z,12.85
2022-10-01T10:05:18.707Z,7.22
2022-10-01T10:07:57.851Z,7.95
2022-10-01T10:10:35.927Z,8.27
2022-10-01T10:13:43.919Z,5.93
2022-10-01T10:16:27.633Z,6.93
2022-10-01T10:19:12.631Z,4.82
2022-10-01T10:21:54.432Z,7.32
2022-10-01T10:24:41.418Z,7.30
2022-10-01T10:27:26.943Z,8.07
2022-10-01T10:30:08.811Z,7.72
2022-10-01T10:32:35.610Z,10.60
2022-10-01T10:35:06.218Z,10.25
2022-10-01T10:37:37.444Z,10.65
2022-10-01T10:40:08.267Z,11.80
2022-10-01T10:42:38.949Z,10.98
2022-10-01T10:45:16.405Z,7.50
2022-10-01T10:47:49.907Z,12.38
2022-10-01T10:50:25.709Z,7.93
2022-10-01T10:52:52.127Z,9.05
2022-10-01T10:55:29.001Z,9.70
2022-10-01T10:57:57.841Z,10.70
2022-10-01T11:00:26.317Z,7.07
2022-10-01T11:02:56.905Z,8.63
2022-10-01T11:05:32.029Z,5.55
2022-10-01T11:08:06.529Z,7.32
2022-10-01T11:10:43.611Z,5.97
2022-10-01T11:13:51.300Z,6.63
2022-10-01T11:16:53.209Z,7.60
2022-10-01T11:19:51.344Z,10.77
2022-10-01T11:22:44.136Z,11.80
2022-10-01T11:25:20.181Z,6.15
2022-10-01T11:27:59.264Z,14.35
2022-10-01T11:30:36.070Z,9.20
2022-10-01T11:33:14.598Z,9.05
2022-10-01T11:35:52.602Z,7.40
2022-10-01T11:38:52.110Z,12.88
2022-10-01T11:41:26.307Z,9.25
2022-10-01T11:44:22.346Z,6.15
2022-10-01T11:47:08.015Z,6.28
2022-10-01T11:49:47.970Z,9.40
2022-10-01T11:52:39.809Z,11.38
2022-10-01T11:55:43.529Z,10.48
2022-10-01T11:58:52.727Z,8.73
2022-10-01T12:04:30.224Z,10.23
2022-10-01T12:07:37.041Z,8.10
2022-10-01T12:10:22.345Z,6.47
2022-10-01T12:12:58.776Z,10.45
2022-10-01T12:15:44.899Z,6.13
2022-10-01T12:18:25.160Z,8.82
2022-10-01T12:20:54.740Z,7.40
2022-10-01T12:23:34.990Z,9.43
2022-10-01T12:26:25.910Z,11.15
2022-10-01T12:29:00.678Z,11.05
2022-10-01T12:31:53.795Z,4.93
2022-10-01T12:34:49.343Z,11.18
2022-10-01T12:37:56.187Z,4.35
2022-10-01T12:40:31.664Z,6.68
2022-10-01T12:43:28.143Z,6.22
2022-10-01T12:46:08.345Z,9.10
2022-10-01T12:48:54.937Z,7.47
2022-10-01T12:51:30.586Z,6.75
2022-10-01T12:54:35.014Z,6.88
2022-10-01T12:57:07.845Z,11.60
2022-10-01T13:00:10.009Z,12.00
2022-10-01T13:03:11.654Z,5.03
2022-10-01T13:05:40.871Z,10.15
2022-10-01T13:08:16.291Z,6.18
2022-10-01T13:10:45.661Z,5.75
2022-10-01T13:13:22.436Z,7.47
2022-10-01T13:15:58.483Z,6.00
2022-10-01T13:18:47.512Z,8.63
2022-10-01T13:21:44.821Z,5.57
2022-10-01T13:24:37.825Z,5.30
2022-10-01T13:27:12.638Z,9.07
2022-10-01T13:30:01.134Z,10.45
2022-10-01T13:32:51.235Z,9.82
2022-10-01T13:35:36.253Z,8.23
2022-10-01T13:38:38.962Z,6.35
2022-10-01T13:41:28.506Z,6.90
2022-10-01T13:44:23.569Z,6.55
2022-10-01T13:46:56.475Z,6.85
2022-10-01T13:49:31.800Z,7.95
2022-10-01T13:51:59.182Z,4.55
2022-10-01T13:54:29.788Z,7.07
2022-10-01T13:57:08.940Z,7.55
2022-10-01T13:59:38.113Z,4.90
2022-10-01T14:02:32.234Z,6.38
2022-10-01T14:05:23.511Z,9.27
2022-10-01T14:07:57.010Z,8.85
2022-10-01T14:10:57.546Z,5.32
2022-10-01T14:13:45.581Z,9.68
2022-10-01T14:16:16.249Z,6.35
2022-10-01T14:18:51.372Z,6.05
2022-10-01T14:21:25.855Z,7.63
2022-10-01T14:23:55.900Z,6.30
2022-10-01T14:26:45.179Z,7.47
2022-10-01T14:29:43.349Z,9.25
2022-10-01T14:32:21.938Z,5.45
2022-10-01T14:35:06.632Z,8.13
2022-10-01T14:37:38.415Z,5.68
2022-10-01T14:40:20.587Z,8.88
2022-10-01T14:43:10.712Z,8.90
2022-10-01T14:45:37.421Z,6.10
2022-10-01T14:53:06.349Z,6.20
2022-10-01T14:55:38.123Z,7.57
2022-10-01T14:58:17.418Z,9.30
2022-10-01T15:00:50.811Z,5.60
2022-10-01T15:03:17.787Z,10.43
2022-10-01T15:11:00.196Z,8.43
2022-10-01T15:13:31.778Z,11.27
2022-10-01T15:15:59.043Z,9.27
2022-10-01T15:18:26.515Z,8.77
2022-10-01T15:20:58.553Z,9.13
2022-10-01T15:23:27.477Z,8.50
2022-10-01T15:25:57.358Z,12.95
2022-10-01T15:28:33.415Z,5.07
2022-10-01T15:31:05.854Z,9.93
2022-10-01T15:33:36.544Z,8.98
2022-10-01T15:36:05.985Z,10.10
2022-10-01T15:38:36.450Z,12.13
2022-10-01T15:41:29.848Z,10.70
2022-10-01T15:43:53.487Z,12.13
2022-10-01T15:46:23.513Z,8.63
2022-10-01T15:49:17.888Z,12.60
2022-10-01T15:52:20.355Z,14.48
2022-10-01T15:54:48.923Z,10.05
2022-10-01T15:57:22.437Z,10.85
2022-10-01T15:59:53.810Z,12.23
2022-10-01T16:02:30.937Z,11.73
2022-10-01T16:05:08.920Z,8.80
2022-10-01T16:07:36.853Z,11.45
2022-10-01T16:10:35.466Z,11.68
2022-10-01T16:13:26.794Z,15.77
2022-10-01T16:16:24.755Z,8.65
2022-10-01T16:19:19.496Z,13.70
2022-10-01T16:22:14.679Z,7.90
2022-10-01T16:24:49.978Z,8.40
2022-10-01T16:27:19.455Z,8.85
2022-10-01T16:30:18.852Z,8.48
2022-10-01T16:32:47.185Z,11.40
2022-10-01T16:35:35.617Z,9.13
2022-10-01T16:38:06.978Z,8.48
2022-10-01T16:40:38.997Z,8.43
2022-10-01T16:43:09.966Z,6.70
2022-10-01T16:45:42.615Z,8.27
2022-10-01T16:48:22.596Z,8.85
2022-10-01T16:50:58.787Z,10.75
2022-10-01T16:53:27.246Z,9.23
2022-10-01T16:55:55.978Z,13.55
2022-10-01T16:58:25.234Z,6.97
2022-10-01T17:00:52.553Z,7.82
2022-10-01T17:03:23.416Z,11.02
2022-10-01T17:05:53.513Z,6.57
2022-10-01T17:08:20.263Z,11.73
2022-10-01T17:10:51.162Z,10.20
2022-10-01T17:13:17.838Z,9.63
2022-10-01T17:15:45.005Z,13.48
2022-10-01T17:18:13.787Z,12.88
2022-10-01T17:20:40.551Z,14.23
2022-10-01T17:23:07.795Z,9.63
2022-10-01T17:25:38.462Z,7.57
2022-10-01T17:28:08.562Z,13.25
2022-10-01T17:30:43.291Z,13.25
2022-10-01T17:33:12.041Z,11.27
2022-10-01T17:35:43.633Z,12.88
2022-10-01T17:38:11.162Z,13.75
2022-10-01T17:40:42.529Z,9.05
2022-10-01T17:43:13.161Z,12.00
2022-10-01T17:45:40.129Z,9.98
2022-10-01T17:48:07.144Z,11.18
2022-10-01T17:50:33.784Z,10.00
2022-10-01T17:53:00.933Z,15.50
2022-10-01T17:55:31.293Z,9.93
2022-10-01T17:57:58.850Z,15.27
2022-10-01T18:00:25.453Z,13.98
2022-10-01T18:02:51.919Z,11.00
2022-10-01T18:05:18.965Z,13.57
2022-10-01T18:07:46.828Z,12.60
2022-10-01T18:10:13.475Z,10.10
2022-10-01T18:12:41.372Z,14.48
2022-10-01T18:15:10.617Z,18.30
2022-10-01T18:17:43.006Z,11.45
2022-10-01T18:20:11.467Z,20.35
2022-10-01T18:22:38.035Z,9.35
2022-10-01T18:25:06.901Z,9.43
2022-10-01T18:27:33.932Z,11.82
2022-10-01T18:30:01.328Z,13.13
2022-10-01T18:32:34.154Z,7.75
2022-10-01T18:35:02.570Z,10.02
2022-10-01T18:37:55.411Z,14.40
2022-10-01T18:40:27.388Z,12.65
2022-10-01T18:43:13.466Z,16.35
2022-10-01T18:46:02.202Z,11.40
2022-10-01T18:48:41.143Z,12.93
2022-10-01T18:51:32.358Z,12.77
2022-10-01T18:54:13.750Z,11.90
2022-10-01T18:56:52.407Z,14.48
2022-10-01T18:59:24.943Z,12.95
2022-10-01T19:02:10.184Z,11.73
2022-10-01T19:05:11.477Z,9.63
2022-10-01T19:08:01.968Z,11.05
2022-10-01T19:10:32.217Z,9.77
2022-10-01T19:13:23.192Z,10.50
2022-10-01T19:16:00.318Z,10.95
2022-10-01T19:18:32.899Z,10.68
2022-10-01T19:21:25.147Z,11.07
2022-10-01T19:24:29.797Z,10.25
2022-10-01T19:27:18.578Z,14.93
2022-10-01T19:30:02.872Z,13.20
2022-10-01T19:33:05.069Z,13.32
2022-10-01T19:35:42.717Z,12.75
2022-10-01T19:38:21.344Z,14.35
2022-10-01T19:41:26.356Z,14.18
2022-10-01T19:44:11.871Z,9.02
2022-10-01T19:46:47.348Z,13.93
2022-10-01T19:49:28.392Z,10.50
2022-10-01T19:52:00.448Z,9.38
2022-10-01T19:54:37.426Z,11.65
2022-10-01T19:57:17.256Z,12.05
2022-10-01T19:59:45.850Z,6.68
2022-10-01T20:02:21.269Z,14.48
2022-10-01T20:04:58.268Z,12.32
2022-10-01T20:07:29.673Z,12.70
2022-10-01T20:10:13.620Z,9.27
2022-10-01T20:13:02.357Z,9.32
2022-10-01T20:16:06.578Z,8.82
2022-10-01T20:18:53.616Z,8.35
2022-10-01T20:22:02.883Z,8.93
2022-10-01T20:24:49.196Z,8.38
2022-10-01T20:27:49.182Z,9.57
2022-10-01T20:30:21.065Z,13.25
2022-10-01T20:33:19.037Z,13.68
2022-10-01T20:36:01.459Z,9.57
2022-10-01T20:38:35.510Z,13.13
2022-10-01T20:41:09.527Z,10.52
2022-10-01T20:43:49.154Z,13.30
2022-10-01T20:46:25.909Z,12.50
2022-10-01T20:49:01.037Z,11.45
2022-10-01T20:51:40.985Z,10.50
2022-10-01T20:54:16.047Z,17.88
2022-10-01T20:57:10.764Z,14.95
2022-10-01T20:59:41.584Z,12.18
2022-10-01T21:02:54.651Z,17.67
2022-10-01T21:05:53.805Z,14.52
2022-10-01T21:08:38.190Z,18.13
2022-10-01T21:11:11.553Z,16.08
2022-10-01T21:14:19.365Z,13.13
2022-10-01T21:17:07.724Z,14.68
2022-10-01T21:20:14.657Z,18.25
2022-10-01T21:23:12.012Z,16.30
2022-10-01T21:25:38.374Z,20.75
2022-10-01T21:28:18.527Z,17.23
2022-10-01T21:30:58.491Z,17.73
2022-10-01T21:33:32.295Z,17.70
2022-10-01T21:36:09.777Z,14.65
2022-10-01T21:38:42.406Z,14.40
2022-10-01T21:41:37.714Z,18.00
2022-10-01T21:44:26.034Z,15.35
2022-10-01T21:47:00.959Z,20.60
2022-10-01T21:50:01.541Z,13.68
2022-10-01T21:53:06.891Z,13.00
2022-10-01T21:56:12.282Z,12.25
2022-10-01T21:58:41.828Z,16.35
2022-10-01T22:01:10.022Z,18.35
2022-10-01T22:03:46.443Z,14.32
2022-10-01T22:06:29.418Z,22.90
2022-10-01T22:09:43.051Z,14.15
2022-10-01T22:12:10.914Z,15.88
2022-10-01T22:14:39.057Z,14.85
2022-10-01T22:17:16.721Z,12.90
2022-10-01T22:19:47.997Z,10.15
2022-10-01T22:22:19.840Z,22.33
2022-10-01T22:24:52.453Z,21.98
2022-10-01T22:27:27.778Z,12.18
2022-10-01T22:30:01.952Z,21.50
2022-10-01T22:32:35.454Z,16.50
2022-10-01T22:35:07.647Z,18.15
2022-10-01T22:37:42.014Z,15.00
2022-10-01T22:40:17.046Z,15.25
2022-10-01T22:42:55.659Z,20.35
2022-10-01T22:45:29.707Z,18.42
2022-10-01T22:48:07.960Z,23.08
2022-10-01T22:51:16.358Z,16.05
2022-10-01T22:53:50.252Z,18.83
2022-10-01T22:56:27.462Z,20.27
2022-10-01T22:59:31.445Z,21.13
2022-10-01T23:02:00.999Z,18.92
2022-10-01T23:04:45.032Z,22.42
2022-10-01T23:07:37.573Z,16.48
2022-10-01T23:10:16.127Z,20.98
2022-10-01T23:13:10.727Z,23.30
2022-10-01T23:16:14.739Z,28.75
2022-10-01T23:18:47.571Z,30.40
2022-10-01T23:21:20.043Z,17.23
2022-10-01T23:23:56.387Z,25.27
2022-10-01T23:26:36.813Z,17.90
2022-10-01T23:29:35.576Z,16.95
2022-10-01T23:32:27.676Z,21.55
2022-10-01T23:35:10.995Z,21.52
2022-10-01T23:37:50.222Z,20.67
2022-10-01T23:40:20.572Z,21.25
2022-10-01T23:42:58.659Z,24.35
2022-10-01T23:48:00.635Z,17.70
2022-10-01T23:50:37.331Z,20.17
2022-10-01T23:53:23.916Z,27.17
2022-10-01T23:56:21.376Z,26.35
2022-10-01T23:59:00.836Z,23.52
